sensor_id;sensor_type;location;lat;lon;timestamp;P1;durP1;ratioP1;P2;durP2;ratioP2
24857;SDS011;12935;50.782;6.074;2022-07-18T00:01:55;25.73;;;11.30;;
24857;SDS011;12935;50.782;6.074;2022-07-18T00:04:22;15.07;;;10.80;;
24857;SDS011;12935;50.782;6.074;2022-07-18T00:06:48;26.73;;;12.13;;
24857;SDS011;12935;50.782;6.074;2022-07-18T00:09:13;18.90;;;11.63;;
24857;SDS011;12935;50.782;6.074;2022-07-18T00:11:39;16.73;;;10.80;;
24857;SDS011;12935;50.782;6.074;2022-07-18T00:14:04;16.67;;;10.83;;
24857;SDS011;12935;50.782;6.074;2022-07-18T00:16:29;25.10;;;12.87;;
24857;SDS011;12935;50.782;6.074;2022-07-18T00:18:55;21.93;;;11.97;;
24857;SDS011;12935;50.782;6.074;2022-07-18T00:21:23;15.43;;;11.13;;
24857;SDS011;12935;50.782;6.074;2022-07-18T00:23:49;20.50;;;11.77;;
24857;SDS011;12935;50.782;6.074;2022-07-18T00:26:14;25.40;;;12.07;;
24857;SDS011;12935;50.782;6.074;2022-07-18T00:28:40;25.33;;;10.40;;
24857;SDS011;12935;50.782;6.074;2022-07-18T00:31:05;31.67;;;12.50;;
24857;SDS011;12935;50.782;6.074;2022-07-18T00:33:30;20.57;;;11.60;;
24857;SDS011;12935;50.782;6.074;2022-07-18T00:35:56;20.57;;;11.43;;
24857;SDS011;12935;50.782;6.074;2022-07-18T00:38:22;18.57;;;10.90;;
24857;SDS011;12935;50.782;6.074;2022-07-18T00:40:47;15.43;;;10.07;;
24857;SDS011;12935;50.782;6.074;2022-07-18T00:43:13;28.90;;;10.17;;
24857;SDS011;12935;50.782;6.074;2022-07-18T00:45:39;38.23;;;12.93;;
24857;SDS011;12935;50.782;6.074;2022-07-18T00:48:09;25.37;;;12.27;;
24857;SDS011;12935;50.782;6.074;2022-07-18T00:50:34;15.00;;;10.60;;
24857;SDS011;12935;50.782;6.074;2022-07-18T00:52:59;35.37;;;12.33;;
24857;SDS011;12935;50.782;6.074;2022-07-18T00:55:25;22.17;;;11.53;;
24857;SDS011;12935;50.782;6.074;2022-07-18T00:57:50;24.20;;;11.33;;
24857;SDS011;12935;50.782;6.074;2022-07-18T01:00:18;19.33;;;12.00;;
24857;SDS011;12935;50.782;6.074;2022-07-18T01:03:02;31.97;;;12.67;;
24857;SDS011;12935;50.782;6.074;2022-07-18T01:05:27;18.63;;;11.93;;
24857;SDS011;12935;50.782;6.074;2022-07-18T01:07:54;15.43;;;10.33;;
24857;SDS011;12935;50.782;6.074;2022-07-18T01:10:19;23.00;;;11.57;;
24857;SDS011;12935;50.782;6.074;2022-07-18T01:12:45;27.57;;;12.67;;
24857;SDS011;12935;50.782;6.074;2022-07-18T01:15:11;28.70;;;11.10;;
24857;SDS011;12935;50.782;6.074;2022-07-18T01:17:37;17.73;;;10.57;;
24857;SDS011;12935;50.782;6.074;2022-07-18T01:20:03;20.87;;;12.83;;
24857;SDS011;12935;50.782;6.074;2022-07-18T01:22:29;28.23;;;11.47;;
24857;SDS011;12935;50.782;6.074;2022-07-18T01:24:55;36.33;;;12.37;;
24857;SDS011;12935;50.782;6.074;2022-07-18T01:27:21;37.10;;;11.70;;
24857;SDS011;12935;50.782;6.074;2022-07-18T01:29:48;23.33;;;11.90;;
24857;SDS011;12935;50.782;6.074;2022-07-18T01:32:15;40.73;;;14.10;;
24857;SDS011;12935;50.782;6.074;2022-07-18T01:34:42;11.93;;;10.17;;
24857;SDS011;12935;50.782;6.074;2022-07-18T01:37:08;22.30;;;12.90;;
24857;SDS011;12935;50.782;6.074;2022-07-18T01:39:34;30.63;;;12.30;;
24857;SDS011;12935;50.782;6.074;2022-07-18T01:42:01;23.27;;;11.40;;
24857;SDS011;12935;50.782;6.074;2022-07-18T01:44:28;28.07;;;12.73;;
24857;SDS011;12935;50.782;6.074;2022-07-18T01:46:54;20.90;;;10.77;;
24857;SDS011;12935;50.782;6.074;2022-07-18T01:49:19;16.07;;;11.03;;
24857;SDS011;12935;50.782;6.074;2022-07-18T01:51:46;19.10;;;10.40;;
24857;SDS011;12935;50.782;6.074;2022-07-18T01:54:12;19.27;;;10.90;;
24857;SDS011;12935;50.782;6.074;2022-07-18T01:56:37;24.67;;;11.10;;
24857;SDS011;12935;50.782;6.074;2022-07-18T01:59:03;24.57;;;10.37;;
24857;SDS011;12935;50.782;6.074;2022-07-18T02:01:28;27.70;;;11.83;;
24857;SDS011;12935;50.782;6.074;2022-07-18T02:03:53;19.77;;;11.57;;
24857;SDS011;12935;50.782;6.074;2022-07-18T02:06:19;20.87;;;11.80;;
24857;SDS011;12935;50.782;6.074;2022-07-18T02:08:44;24.83;;;10.10;;
24857;SDS011;12935;50.782;6.074;2022-07-18T02:11:09;24.93;;;11.43;;
24857;SDS011;12935;50.782;6.074;2022-07-18T02:13:35;28.67;;;11.50;;
24857;SDS011;12935;50.782;6.074;2022-07-18T02:16:00;22.80;;;11.80;;
24857;SDS011;12935;50.782;6.074;2022-07-18T02:18:26;18.13;;;9.80;;
24857;SDS011;12935;50.782;6.074;2022-07-18T02:20:51;25.63;;;10.70;;
24857;SDS011;12935;50.782;6.074;2022-07-18T02:23:17;30.63;;;12.10;;
24857;SDS011;12935;50.782;6.074;2022-07-18T02:25:42;21.07;;;10.40;;
24857;SDS011;12935;50.782;6.074;2022-07-18T02:28:07;18.93;;;10.30;;
24857;SDS011;12935;50.782;6.074;2022-07-18T02:30:32;27.57;;;10.80;;
24857;SDS011;12935;50.782;6.074;2022-07-18T02:32:58;22.70;;;10.20;;
24857;SDS011;12935;50.782;6.074;2022-07-18T02:35:23;30.33;;;10.77;;
24857;SDS011;12935;50.782;6.074;2022-07-18T02:37:48;20.13;;;11.10;;
24857;SDS011;12935;50.782;6.074;2022-07-18T02:40:14;18.30;;;11.10;;
24857;SDS011;12935;50.782;6.074;2022-07-18T02:42:39;15.53;;;9.97;;
24857;SDS011;12935;50.782;6.074;2022-07-18T02:45:05;21.77;;;10.43;;
24857;SDS011;12935;50.782;6.074;2022-07-18T02:47:32;16.70;;;9.90;;
24857;SDS011;12935;50.782;6.074;2022-07-18T02:49:58;27.50;;;10.63;;
24857;SDS011;12935;50.782;6.074;2022-07-18T02:52:23;54.33;;;13.00;;
24857;SDS011;12935;50.782;6.074;2022-07-18T02:54:48;25.97;;;10.20;;
24857;SDS011;12935;50.782;6.074;2022-07-18T02:57:14;20.37;;;10.13;;
24857;SDS011;12935;50.782;6.074;2022-07-18T02:59:39;17.27;;;10.00;;
24857;SDS011;12935;50.782;6.074;2022-07-18T03:02:05;22.70;;;9.50;;
24857;SDS011;12935;50.782;6.074;2022-07-18T03:04:30;20.03;;;10.50;;
24857;SDS011;12935;50.782;6.074;2022-07-18T03:06:56;24.33;;;10.13;;
24857;SDS011;12935;50.782;6.074;2022-07-18T03:09:21;20.83;;;9.33;;
24857;SDS011;12935;50.782;6.074;2022-07-18T03:11:47;18.30;;;9.90;;
24857;SDS011;12935;50.782;6.074;2022-07-18T03:14:12;15.20;;;9.40;;
24857;SDS011;12935;50.782;6.074;2022-07-18T03:16:38;14.07;;;9.40;;
24857;SDS011;12935;50.782;6.074;2022-07-18T03:19:03;18.43;;;9.43;;
24857;SDS011;12935;50.782;6.074;2022-07-18T03:21:28;26.83;;;11.73;;
24857;SDS011;12935;50.782;6.074;2022-07-18T03:23:54;13.63;;;8.97;;
24857;SDS011;12935;50.782;6.074;2022-07-18T03:26:20;18.87;;;9.53;;
24857;SDS011;12935;50.782;6.074;2022-07-18T03:28:45;23.30;;;10.60;;
24857;SDS011;12935;50.782;6.074;2022-07-18T03:31:11;26.43;;;11.00;;
24857;SDS011;12935;50.782;6.074;2022-07-18T03:33:37;20.67;;;9.70;;
24857;SDS011;12935;50.782;6.074;2022-07-18T03:36:03;28.83;;;10.63;;
24857;SDS011;12935;50.782;6.074;2022-07-18T03:38:28;25.67;;;10.30;;
24857;SDS011;12935;50.782;6.074;2022-07-18T03:40:54;21.90;;;9.60;;
24857;SDS011;12935;50.782;6.074;2022-07-18T03:43:19;33.80;;;10.10;;
24857;SDS011;12935;50.782;6.074;2022-07-18T03:45:45;24.53;;;9.70;;
24857;SDS011;12935;50.782;6.074;2022-07-18T03:48:11;19.67;;;8.70;;
24857;SDS011;12935;50.782;6.074;2022-07-18T03:50:37;18.57;;;9.53;;
24857;SDS011;12935;50.782;6.074;2022-07-18T03:53:02;19.93;;;10.07;;
24857;SDS011;12935;50.782;6.074;2022-07-18T03:55:27;22.67;;;10.07;;
24857;SDS011;12935;50.782;6.074;2022-07-18T03:57:53;19.27;;;8.93;;
24857;SDS011;12935;50.782;6.074;2022-07-18T04:00:18;15.17;;;8.33;;
24857;SDS011;12935;50.782;6.074;2022-07-18T04:02:45;17.87;;;9.27;;
24857;SDS011;12935;50.782;6.074;2022-07-18T04:05:13;29.97;;;10.27;;
24857;SDS011;12935;50.782;6.074;2022-07-18T04:07:39;24.60;;;11.30;;
24857;SDS011;12935;50.782;6.074;2022-07-18T04:10:06;28.00;;;10.50;;
24857;SDS011;12935;50.782;6.074;2022-07-18T04:12:32;32.73;;;10.47;;
24857;SDS011;12935;50.782;6.074;2022-07-18T04:14:58;22.40;;;9.63;;
24857;SDS011;12935;50.782;6.074;2022-07-18T04:17:23;27.07;;;12.40;;
24857;SDS011;12935;50.782;6.074;2022-07-18T04:19:48;21.43;;;9.50;;
24857;SDS011;12935;50.782;6.074;2022-07-18T04:22:14;33.50;;;11.07;;
24857;SDS011;12935;50.782;6.074;2022-07-18T04:24:39;14.53;;;9.10;;
24857;SDS011;12935;50.782;6.074;2022-07-18T04:27:05;12.17;;;8.80;;
24857;SDS011;12935;50.782;6.074;2022-07-18T04:29:30;28.67;;;10.83;;
24857;SDS011;12935;50.782;6.074;2022-07-18T04:31:57;23.10;;;9.40;;
24857;SDS011;12935;50.782;6.074;2022-07-18T04:34:22;22.27;;;9.60;;
24857;SDS011;12935;50.782;6.074;2022-07-18T04:36:48;22.17;;;9.23;;
24857;SDS011;12935;50.782;6.074;2022-07-18T04:39:13;15.40;;;8.60;;
24857;SDS011;12935;50.782;6.074;2022-07-18T04:41:38;40.10;;;12.00;;
24857;SDS011;12935;50.782;6.074;2022-07-18T04:44:04;21.17;;;9.13;;
24857;SDS011;12935;50.782;6.074;2022-07-18T04:46:29;16.73;;;10.07;;
24857;SDS011;12935;50.782;6.074;2022-07-18T04:48:55;23.50;;;10.23;;
24857;SDS011;12935;50.782;6.074;2022-07-18T04:51:20;28.47;;;11.37;;
24857;SDS011;12935;50.782;6.074;2022-07-18T04:53:45;24.17;;;9.80;;
24857;SDS011;12935;50.782;6.074;2022-07-18T04:56:11;22.97;;;10.57;;
24857;SDS011;12935;50.782;6.074;2022-07-18T04:58:36;30.37;;;9.90;;
24857;SDS011;12935;50.782;6.074;2022-07-18T05:01:01;27.90;;;13.30;;
24857;SDS011;12935;50.782;6.074;2022-07-18T05:03:27;28.63;;;11.13;;
24857;SDS011;12935;50.782;6.074;2022-07-18T05:05:52;21.47;;;9.40;;
24857;SDS011;12935;50.782;6.074;2022-07-18T05:08:18;14.67;;;8.57;;
24857;SDS011;12935;50.782;6.074;2022-07-18T05:10:43;21.63;;;9.90;;
24857;SDS011;12935;50.782;6.074;2022-07-18T05:13:08;22.20;;;9.70;;
24857;SDS011;12935;50.782;6.074;2022-07-18T05:15:34;18.90;;;9.93;;
24857;SDS011;12935;50.782;6.074;2022-07-18T05:17:59;28.30;;;9.73;;
24857;SDS011;12935;50.782;6.074;2022-07-18T05:20:25;18.20;;;10.20;;
24857;SDS011;12935;50.782;6.074;2022-07-18T05:22:51;14.70;;;8.60;;
24857;SDS011;12935;50.782;6.074;2022-07-18T05:25:18;20.53;;;10.77;;
24857;SDS011;12935;50.782;6.074;2022-07-18T05:27:44;19.30;;;9.80;;
24857;SDS011;12935;50.782;6.074;2022-07-18T05:30:10;23.07;;;8.87;;
24857;SDS011;12935;50.782;6.074;2022-07-18T05:32:37;24.27;;;13.77;;
24857;SDS011;12935;50.782;6.074;2022-07-18T05:35:04;28.57;;;10.47;;
24857;SDS011;12935;50.782;6.074;2022-07-18T05:37:30;20.80;;;10.60;;
24857;SDS011;12935;50.782;6.074;2022-07-18T05:39:56;16.07;;;9.60;;
24857;SDS011;12935;50.782;6.074;2022-07-18T05:42:21;44.20;;;12.43;;
24857;SDS011;12935;50.782;6.074;2022-07-18T05:44:47;23.20;;;10.10;;
24857;SDS011;12935;50.782;6.074;2022-07-18T05:47:12;22.70;;;10.47;;
24857;SDS011;12935;50.782;6.074;2022-07-18T05:49:38;17.20;;;10.00;;
24857;SDS011;12935;50.782;6.074;2022-07-18T05:52:04;17.77;;;10.20;;
24857;SDS011;12935;50.782;6.074;2022-07-18T05:54:30;22.33;;;10.13;;
24857;SDS011;12935;50.782;6.074;2022-07-18T05:56:56;14.93;;;10.00;;
24857;SDS011;12935;50.782;6.074;2022-07-18T05:59:21;31.97;;;11.80;;
24857;SDS011;12935;50.782;6.074;2022-07-18T06:01:47;36.60;;;12.93;;
24857;SDS011;12935;50.782;6.074;2022-07-18T06:04:12;31.90;;;12.27;;
24857;SDS011;12935;50.782;6.074;2022-07-18T06:06:38;16.97;;;10.80;;
24857;SDS011;12935;50.782;6.074;2022-07-18T06:09:03;18.63;;;11.00;;
24857;SDS011;12935;50.782;6.074;2022-07-18T06:11:29;22.10;;;10.70;;
24857;SDS011;12935;50.782;6.074;2022-07-18T06:13:55;18.20;;;11.43;;
24857;SDS011;12935;50.782;6.074;2022-07-18T06:16:20;25.00;;;12.97;;
24857;SDS011;12935;50.782;6.074;2022-07-18T06:18:45;28.20;;;12.90;;
24857;SDS011;12935;50.782;6.074;2022-07-18T06:21:10;23.23;;;11.30;;
24857;SDS011;12935;50.782;6.074;2022-07-18T06:23:36;14.63;;;11.97;;
24857;SDS011;12935;50.782;6.074;2022-07-18T06:26:02;13.67;;;11.90;;
24857;SDS011;12935;50.782;6.074;2022-07-18T06:28:27;21.73;;;12.97;;
24857;SDS011;12935;50.782;6.074;2022-07-18T06:30:53;14.87;;;12.00;;
24857;SDS011;12935;50.782;6.074;2022-07-18T06:33:19;22.43;;;13.27;;
24857;SDS011;12935;50.782;6.074;2022-07-18T06:35:45;33.90;;;13.33;;
24857;SDS011;12935;50.782;6.074;2022-07-18T06:38:11;16.37;;;12.23;;
24857;SDS011;12935;50.782;6.074;2022-07-18T06:40:37;19.00;;;12.33;;
24857;SDS011;12935;50.782;6.074;2022-07-18T06:43:03;16.40;;;11.80;;
24857;SDS011;12935;50.782;6.074;2022-07-18T06:45:28;26.57;;;13.60;;
24857;SDS011;12935;50.782;6.074;2022-07-18T06:47:54;16.83;;;12.30;;
24857;SDS011;12935;50.782;6.074;2022-07-18T06:50:20;24.27;;;15.37;;
24857;SDS011;12935;50.782;6.074;2022-07-18T06:52:45;23.80;;;13.40;;
24857;SDS011;12935;50.782;6.074;2022-07-18T06:55:11;15.87;;;13.20;;
24857;SDS011;12935;50.782;6.074;2022-07-18T06:57:38;16.77;;;14.10;;
24857;SDS011;12935;50.782;6.074;2022-07-18T07:00:05;22.77;;;14.33;;
24857;SDS011;12935;50.782;6.074;2022-07-18T07:02:32;31.60;;;16.03;;
24857;SDS011;12935;50.782;6.074;2022-07-18T07:04:58;17.80;;;13.70;;
24857;SDS011;12935;50.782;6.074;2022-07-18T07:07:23;27.33;;;14.70;;
24857;SDS011;12935;50.782;6.074;2022-07-18T07:09:48;25.37;;;14.43;;
24857;SDS011;12935;50.782;6.074;2022-07-18T07:12:14;37.80;;;16.17;;
24857;SDS011;12935;50.782;6.074;2022-07-18T07:14:39;17.83;;;14.40;;
24857;SDS011;12935;50.782;6.074;2022-07-18T07:17:04;19.33;;;14.93;;
24857;SDS011;12935;50.782;6.074;2022-07-18T07:19:30;28.20;;;15.83;;
24857;SDS011;12935;50.782;6.074;2022-07-18T07:21:56;20.97;;;14.50;;
24857;SDS011;12935;50.782;6.074;2022-07-18T07:24:21;22.70;;;16.20;;
24857;SDS011;12935;50.782;6.074;2022-07-18T07:26:47;24.33;;;15.97;;
24857;SDS011;12935;50.782;6.074;2022-07-18T07:29:12;22.30;;;14.33;;
24857;SDS011;12935;50.782;6.074;2022-07-18T07:31:38;20.27;;;14.97;;
24857;SDS011;12935;50.782;6.074;2022-07-18T07:34:03;28.87;;;16.80;;
24857;SDS011;12935;50.782;6.074;2022-07-18T07:36:28;25.80;;;15.17;;
24857;SDS011;12935;50.782;6.074;2022-07-18T07:38:54;16.10;;;14.60;;
24857;SDS011;12935;50.782;6.074;2022-07-18T07:41:20;18.03;;;15.00;;
24857;SDS011;12935;50.782;6.074;2022-07-18T07:43:45;29.30;;;16.90;;
24857;SDS011;12935;50.782;6.074;2022-07-18T07:46:11;22.23;;;15.83;;
24857;SDS011;12935;50.782;6.074;2022-07-18T07:48:36;27.07;;;16.83;;
24857;SDS011;12935;50.782;6.074;2022-07-18T07:51:03;31.40;;;16.80;;
24857;SDS011;12935;50.782;6.074;2022-07-18T07:53:28;26.73;;;17.10;;
24857;SDS011;12935;50.782;6.074;2022-07-18T07:55:54;17.63;;;15.80;;
24857;SDS011;12935;50.782;6.074;2022-07-18T07:58:19;19.00;;;16.77;;
24857;SDS011;12935;50.782;6.074;2022-07-18T08:00:45;23.17;;;16.93;;
24857;SDS011;12935;50.782;6.074;2022-07-18T08:03:10;22.97;;;16.70;;
24857;SDS011;12935;50.782;6.074;2022-07-18T08:05:45;22.40;;;15.97;;
24857;SDS011;12935;50.782;6.074;2022-07-18T08:08:13;22.67;;;15.60;;
24857;SDS011;12935;50.782;6.074;2022-07-18T08:10:39;22.33;;;15.50;;
24857;SDS011;12935;50.782;6.074;2022-07-18T08:13:04;20.27;;;16.33;;
24857;SDS011;12935;50.782;6.074;2022-07-18T08:15:30;27.17;;;16.30;;
24857;SDS011;12935;50.782;6.074;2022-07-18T08:17:55;18.27;;;16.23;;
24857;SDS011;12935;50.782;6.074;2022-07-18T08:20:21;18.07;;;15.90;;
24857;SDS011;12935;50.782;6.074;2022-07-18T08:25:26;17.67;;;15.80;;
24857;SDS011;12935;50.782;6.074;2022-07-18T08:27:53;20.03;;;16.73;;
24857;SDS011;12935;50.782;6.074;2022-07-18T08:30:18;31.07;;;18.20;;
24857;SDS011;12935;50.782;6.074;2022-07-18T08:32:44;25.80;;;17.53;;
24857;SDS011;12935;50.782;6.074;2022-07-18T08:35:10;25.60;;;17.30;;
24857;SDS011;12935;50.782;6.074;2022-07-18T08:37:35;27.63;;;17.67;;
24857;SDS011;12935;50.782;6.074;2022-07-18T08:40:01;18.17;;;16.03;;
24857;SDS011;12935;50.782;6.074;2022-07-18T08:42:27;21.93;;;17.20;;
24857;SDS011;12935;50.782;6.074;2022-07-18T08:44:56;24.43;;;18.10;;
24857;SDS011;12935;50.782;6.074;2022-07-18T08:47:22;30.23;;;17.33;;
24857;SDS011;12935;50.782;6.074;2022-07-18T08:49:49;23.53;;;17.20;;
24857;SDS011;12935;50.782;6.074;2022-07-18T08:52:14;30.07;;;17.73;;
24857;SDS011;12935;50.782;6.074;2022-07-18T08:54:40;23.57;;;18.20;;
24857;SDS011;12935;50.782;6.074;2022-07-18T08:57:06;22.80;;;16.63;;
24857;SDS011;12935;50.782;6.074;2022-07-18T08:59:32;19.70;;;16.07;;
24857;SDS011;12935;50.782;6.074;2022-07-18T09:01:57;20.27;;;15.70;;
24857;SDS011;12935;50.782;6.074;2022-07-18T09:04:32;20.20;;;16.50;;
24857;SDS011;12935;50.782;6.074;2022-07-18T09:07:05;21.40;;;16.50;;
24857;SDS011;12935;50.782;6.074;2022-07-18T09:09:33;25.17;;;18.23;;
24857;SDS011;12935;50.782;6.074;2022-07-18T09:12:00;21.30;;;16.03;;
24857;SDS011;12935;50.782;6.074;2022-07-18T09:17:01;22.47;;;17.20;;
24857;SDS011;12935;50.782;6.074;2022-07-18T09:19:28;20.63;;;16.60;;
24857;SDS011;12935;50.782;6.074;2022-07-18T09:21:53;34.03;;;18.33;;
24857;SDS011;12935;50.782;6.074;2022-07-18T09:24:18;30.43;;;17.57;;
24857;SDS011;12935;50.782;6.074;2022-07-18T09:26:44;15.83;;;14.00;;
24857;SDS011;12935;50.782;6.074;2022-07-18T09:29:14;23.00;;;16.93;;
24857;SDS011;12935;50.782;6.074;2022-07-18T09:31:45;20.17;;;18.00;;
24857;SDS011;12935;50.782;6.074;2022-07-18T09:34:14;20.83;;;16.20;;
24857;SDS011;12935;50.782;6.074;2022-07-18T09:36:53;20.27;;;16.67;;
24857;SDS011;12935;50.782;6.074;2022-07-18T09:39:20;18.33;;;16.03;;
24857;SDS011;12935;50.782;6.074;2022-07-18T09:41:46;18.60;;;16.33;;
24857;SDS011;12935;50.782;6.074;2022-07-18T09:44:15;19.63;;;16.13;;
24857;SDS011;12935;50.782;6.074;2022-07-18T09:46:59;19.77;;;16.43;;
24857;SDS011;12935;50.782;6.074;2022-07-18T09:49:32;17.40;;;15.43;;
24857;SDS011;12935;50.782;6.074;2022-07-18T09:52:03;23.50;;;16.87;;
24857;SDS011;12935;50.782;6.074;2022-07-18T09:54:43;16.97;;;15.20;;
24857;SDS011;12935;50.782;6.074;2022-07-18T09:57:09;17.73;;;15.83;;
24857;SDS011;12935;50.782;6.074;2022-07-18T09:59:35;20.33;;;16.50;;
24857;SDS011;12935;50.782;6.074;2022-07-18T10:02:02;30.93;;;19.27;;
24857;SDS011;12935;50.782;6.074;2022-07-18T10:04:29;23.50;;;16.73;;
24857;SDS011;12935;50.782;6.074;2022-07-18T10:06:55;17.10;;;15.30;;
24857;SDS011;12935;50.782;6.074;2022-07-18T10:09:20;17.33;;;15.63;;
24857;SDS011;12935;50.782;6.074;2022-07-18T10:11:46;19.50;;;17.27;;
24857;SDS011;12935;50.782;6.074;2022-07-18T10:14:12;19.13;;;17.13;;
24857;SDS011;12935;50.782;6.074;2022-07-18T10:16:37;24.00;;;15.97;;
24857;SDS011;12935;50.782;6.074;2022-07-18T10:19:03;19.03;;;16.80;;
24857;SDS011;12935;50.782;6.074;2022-07-18T10:21:28;22.77;;;15.00;;
24857;SDS011;12935;50.782;6.074;2022-07-18T10:23:55;16.93;;;15.40;;
24857;SDS011;12935;50.782;6.074;2022-07-18T10:26:22;16.10;;;14.40;;
24857;SDS011;12935;50.782;6.074;2022-07-18T10:31:20;18.13;;;16.17;;
24857;SDS011;12935;50.782;6.074;2022-07-18T10:33:47;20.60;;;14.97;;
24857;SDS011;12935;50.782;6.074;2022-07-18T10:36:17;30.60;;;17.77;;
24857;SDS011;12935;50.782;6.074;2022-07-18T10:47:19;17.20;;;15.30;;
24857;SDS011;12935;50.782;6.074;2022-07-18T10:57:29;21.60;;;16.80;;
24857;SDS011;12935;50.782;6.074;2022-07-18T11:00:07;31.07;;;16.33;;
24857;SDS011;12935;50.782;6.074;2022-07-18T11:15:54;21.17;;;14.17;;
24857;SDS011;12935;50.782;6.074;2022-07-18T11:18:20;14.90;;;13.33;;
24857;SDS011;12935;50.782;6.074;2022-07-18T11:20:46;21.30;;;14.90;;
24857;SDS011;12935;50.782;6.074;2022-07-18T11:23:17;17.73;;;14.53;;
24857;SDS011;12935;50.782;6.074;2022-07-18T11:25:45;22.57;;;16.83;;
24857;SDS011;12935;50.782;6.074;2022-07-18T11:28:11;23.33;;;15.83;;
24857;SDS011;12935;50.782;6.074;2022-07-18T11:30:37;18.07;;;14.13;;
24857;SDS011;12935;50.782;6.074;2022-07-18T11:33:04;18.13;;;15.30;;
24857;SDS011;12935;50.782;6.074;2022-07-18T11:35:30;27.40;;;15.80;;
24857;SDS011;12935;50.782;6.074;2022-07-18T11:37:56;17.47;;;15.67;;
24857;SDS011;12935;50.782;6.074;2022-07-18T11:40:21;33.83;;;15.83;;
24857;SDS011;12935;50.782;6.074;2022-07-18T11:42:47;24.73;;;15.87;;
24857;SDS011;12935;50.782;6.074;2022-07-18T11:45:14;23.93;;;15.03;;
24857;SDS011;12935;50.782;6.074;2022-07-18T11:47:48;18.00;;;14.00;;
24857;SDS011;12935;50.782;6.074;2022-07-18T11:50:15;22.63;;;14.57;;
24857;SDS011;12935;50.782;6.074;2022-07-18T11:52:42;19.03;;;14.50;;
24857;SDS011;12935;50.782;6.074;2022-07-18T11:55:10;21.27;;;14.70;;
24857;SDS011;12935;50.782;6.074;2022-07-18T11:57:37;23.20;;;15.20;;
24857;SDS011;12935;50.782;6.074;2022-07-18T12:00:13;23.60;;;14.90;;
24857;SDS011;12935;50.782;6.074;2022-07-18T12:02:43;23.10;;;16.37;;
24857;SDS011;12935;50.782;6.074;2022-07-18T12:05:08;19.60;;;14.57;;
24857;SDS011;12935;50.782;6.074;2022-07-18T12:07:34;18.63;;;13.97;;
24857;SDS011;12935;50.782;6.074;2022-07-18T12:10:09;20.17;;;15.37;;
24857;SDS011;12935;50.782;6.074;2022-07-18T12:12:39;17.83;;;14.97;;
24857;SDS011;12935;50.782;6.074;2022-07-18T12:15:06;19.30;;;14.73;;
24857;SDS011;12935;50.782;6.074;2022-07-18T12:17:41;23.23;;;14.93;;
24857;SDS011;12935;50.782;6.074;2022-07-18T12:20:16;22.60;;;14.43;;
24857;SDS011;12935;50.782;6.074;2022-07-18T12:28:22;30.27;;;15.40;;
24857;SDS011;12935;50.782;6.074;2022-07-18T12:30:50;23.80;;;15.47;;
24857;SDS011;12935;50.782;6.074;2022-07-18T12:33:16;15.53;;;14.17;;
24857;SDS011;12935;50.782;6.074;2022-07-18T12:35:42;27.30;;;14.90;;
24857;SDS011;12935;50.782;6.074;2022-07-18T12:38:11;17.10;;;13.43;;
24857;SDS011;12935;50.782;6.074;2022-07-18T12:40:43;15.83;;;14.20;;
24857;SDS011;12935;50.782;6.074;2022-07-18T12:45:59;18.13;;;14.57;;
24857;SDS011;12935;50.782;6.074;2022-07-18T12:48:26;21.50;;;15.00;;
24857;SDS011;12935;50.782;6.074;2022-07-18T12:53:29;17.93;;;14.70;;
24857;SDS011;12935;50.782;6.074;2022-07-18T12:55:56;19.87;;;14.50;;
24857;SDS011;12935;50.782;6.074;2022-07-18T12:58:22;18.57;;;14.03;;
24857;SDS011;12935;50.782;6.074;2022-07-18T13:00:47;28.63;;;14.10;;
24857;SDS011;12935;50.782;6.074;2022-07-18T13:03:13;15.40;;;13.67;;
24857;SDS011;12935;50.782;6.074;2022-07-18T13:05:39;23.70;;;13.90;;
24857;SDS011;12935;50.782;6.074;2022-07-18T13:08:05;19.83;;;14.30;;
24857;SDS011;12935;50.782;6.074;2022-07-18T13:10:35;14.93;;;13.40;;
24857;SDS011;12935;50.782;6.074;2022-07-18T13:13:01;22.53;;;15.53;;
24857;SDS011;12935;50.782;6.074;2022-07-18T13:15:28;21.83;;;14.83;;
24857;SDS011;12935;50.782;6.074;2022-07-18T13:17:53;14.70;;;13.43;;
24857;SDS011;12935;50.782;6.074;2022-07-18T13:20:19;19.47;;;15.33;;
24857;SDS011;12935;50.782;6.074;2022-07-18T13:22:46;23.90;;;13.77;;
24857;SDS011;12935;50.782;6.074;2022-07-18T13:25:11;21.17;;;13.53;;
24857;SDS011;12935;50.782;6.074;2022-07-18T13:27:37;16.90;;;13.33;;
24857;SDS011;12935;50.782;6.074;2022-07-18T13:30:04;21.73;;;14.67;;
24857;SDS011;12935;50.782;6.074;2022-07-18T13:32:31;20.83;;;12.40;;
24857;SDS011;12935;50.782;6.074;2022-07-18T13:34:57;19.53;;;14.07;;
24857;SDS011;12935;50.782;6.074;2022-07-18T13:37:22;22.00;;;12.37;;
24857;SDS011;12935;50.782;6.074;2022-07-18T13:39:48;16.67;;;13.27;;
24857;SDS011;12935;50.782;6.074;2022-07-18T13:42:13;27.97;;;14.67;;
24857;SDS011;12935;50.782;6.074;2022-07-18T13:44:39;21.13;;;13.90;;
24857;SDS011;12935;50.782;6.074;2022-07-18T13:47:04;21.30;;;12.97;;
24857;SDS011;12935;50.782;6.074;2022-07-18T13:49:29;20.50;;;14.27;;
24857;SDS011;12935;50.782;6.074;2022-07-18T13:51:55;15.10;;;13.50;;
24857;SDS011;12935;50.782;6.074;2022-07-18T13:54:21;14.70;;;13.20;;
24857;SDS011;12935;50.782;6.074;2022-07-18T13:56:46;20.20;;;12.73;;
24857;SDS011;12935;50.782;6.074;2022-07-18T13:59:12;16.30;;;13.17;;
24857;SDS011;12935;50.782;6.074;2022-07-18T14:01:37;15.77;;;13.80;;
24857;SDS011;12935;50.782;6.074;2022-07-18T14:04:03;17.63;;;13.57;;
24857;SDS011;12935;50.782;6.074;2022-07-18T14:06:29;13.90;;;12.57;;
24857;SDS011;12935;50.782;6.074;2022-07-18T14:08:54;19.97;;;14.63;;
24857;SDS011;12935;50.782;6.074;2022-07-18T14:11:19;29.80;;;14.23;;
24857;SDS011;12935;50.782;6.074;2022-07-18T14:13:45;28.73;;;16.10;;
24857;SDS011;12935;50.782;6.074;2022-07-18T14:16:11;19.40;;;14.70;;
24857;SDS011;12935;50.782;6.074;2022-07-18T14:18:37;20.70;;;15.23;;
24857;SDS011;12935;50.782;6.074;2022-07-18T14:21:02;24.67;;;15.50;;
24857;SDS011;12935;50.782;6.074;2022-07-18T14:23:28;21.67;;;14.60;;
24857;SDS011;12935;50.782;6.074;2022-07-18T14:25:53;24.57;;;16.20;;
24857;SDS011;12935;50.782;6.074;2022-07-18T14:28:18;36.40;;;16.80;;
24857;SDS011;12935;50.782;6.074;2022-07-18T14:30:44;27.07;;;16.60;;
24857;SDS011;12935;50.782;6.074;2022-07-18T14:33:09;23.53;;;15.53;;
24857;SDS011;12935;50.782;6.074;2022-07-18T14:35:34;21.77;;;17.07;;
24857;SDS011;12935;50.782;6.074;2022-07-18T14:38:00;24.07;;;16.93;;
24857;SDS011;12935;50.782;6.074;2022-07-18T14:40:25;24.37;;;16.40;;
24857;SDS011;12935;50.782;6.074;2022-07-18T14:42:50;19.57;;;16.50;;
24857;SDS011;12935;50.782;6.074;2022-07-18T14:45:16;26.27;;;16.63;;
24857;SDS011;12935;50.782;6.074;2022-07-18T14:47:41;24.90;;;18.73;;
24857;SDS011;12935;50.782;6.074;2022-07-18T14:50:07;27.57;;;17.97;;
24857;SDS011;12935;50.782;6.074;2022-07-18T14:52:35;17.73;;;15.97;;
24857;SDS011;12935;50.782;6.074;2022-07-18T14:55:01;20.00;;;17.50;;
24857;SDS011;12935;50.782;6.074;2022-07-18T14:57:26;33.67;;;18.33;;
24857;SDS011;12935;50.782;6.074;2022-07-18T14:59:52;30.13;;;18.50;;
24857;SDS011;12935;50.782;6.074;2022-07-18T15:02:17;46.93;;;20.27;;
24857;SDS011;12935;50.782;6.074;2022-07-18T15:04:42;26.63;;;17.13;;
24857;SDS011;12935;50.782;6.074;2022-07-18T15:07:08;29.97;;;17.47;;